Time;durP1;ratioP1;P1;durP2;ratioP2;P2;SDS_P1;SDS_P2;PMS_P1;PMS_P2;Temp;Humidity;BMP_temperature;BMP_pressure;BME280_temperature;BME280_humidity;BME280_pressure;Samples;Min_cycle;Max_cycle;Signal;HPM_P1;HPM_P2
2022/02/09 00:07:32;;;;;;;;;;;;;;;0.02;79.29;100029.91;5075581;28;19916;-67
2022/02/09 00:09:57;;;;;;;;;;;;;;;-0.01;78.85;100031.78;5075417;28;19923;-66
2022/02/09 00:13:09;;;;;;;;;;;;;;;-0.07;79.22;100026.16;5075647;28;19916;-68
2022/02/09 00:15:56;;;;;;;;;;;;;;;-0.12;79.30;100017.81;5071445;28;19924;-66
2022/02/09 00:20:57;;;;;;;;;;;;;;;-0.15;79.52;100020.66;5075474;28;19916;-66
2022/02/09 01:56:54;;;;;;;;;;;;;;;-0.10;80.61;100040.31;5073721;28;19962;-66
2022/02/09 01:59:20;;;;;;;;;;;;;;;-0.20;80.56;100036.72;5073497;28;19920;-67
2022/02/09 02:01:45;;;;;;;;;;;;;;;-0.19;80.95;100034.94;5073393;28;20015;-68
2022/02/09 02:04:10;;;;;;;;;;;;;;;-0.16;81.31;100039.94;5073859;28;19916;-66
2022/02/09 02:06:36;;;;;;;;;;;;;;;-0.10;80.79;100044.72;5056144;28;19916;-69
2022/02/09 02:09:02;;;;;;;;;;;;;;;-0.14;80.72;100041.50;5073278;28;19916;-68
2022/02/09 02:11:33;;;;;;;;;;;;;;;-0.12;80.46;100044.00;5072275;28;20339;-68
2022/02/09 02:14:26;;;;;;;;;;;;;;;-0.04;80.87;100044.25;5072664;28;20303;-66
2022/02/09 02:16:56;;;;;;;;;;;;;;;-0.02;80.34;100055.44;5072278;28;19931;-67
2022/02/09 03:14:11;;;;;;;;;;;;;;;0.08;80.39;100064.31;5072515;28;19923;-69
2022/02/09 03:16:42;;;;;;;;;;;;;;;0.06;80.95;100062.75;5072278;28;20014;-66
2022/02/09 03:25:16;;;;;;;;;;;;;;;-0.01;81.32;100078.06;5072257;28;19962;-68
2022/02/09 03:27:46;;;;;;;;;;;;;;;0.02;80.91;100077.03;5073141;28;20347;-66
2022/02/09 03:44:09;;;;;;;;;;;;;;;0.05;80.83;100089.91;5076213;28;19920;-69
2022/02/09 03:52:32;;;;;;;;;;;;;;;-0.16;81.02;100092.28;5058049;28;19920;-67
2022/02/09 03:57:03;;;;;;;;;;;;;;;-0.18;81.46;100104.63;5076414;28;20010;-66
2022/02/09 03:59:31;;;;;;;;;;;;;;;-0.17;81.51;100093.22;5076477;28;19920;-68
2022/02/09 04:01:57;;;;;;;;;;;;;;;-0.10;81.08;100097.06;5076578;28;19999;-68
2022/02/09 04:04:22;;;;;;;;;;;;;;;-0.06;80.98;100101.13;5076193;28;19916;-67
2022/02/09 04:06:50;;;;;;;;;;;;;;;-0.06;80.92;100106.34;5075822;28;19920;-70
2022/02/09 04:09:19;;;;;;;;;;;;;;;0.01;81.09;100099.75;5057714;28;19916;-69
2022/02/09 04:12:02;;;;;;;;;;;;;;;0.06;81.16;100099.41;5057801;28;20002;-70
2022/02/09 04:14:56;;;;;;;;;;;;;;;0.06;80.73;100100.25;5075774;28;20030;-67
2022/02/09 04:36:16;;;;;;;;;;;;;;;0.33;80.28;100109.66;5075069;28;19981;-67
2022/02/09 04:52:19;;;;;;;;;;;;;;;0.29;80.52;100116.91;5074982;28;19920;-67
2022/02/09 04:57:35;;;;;;;;;;;;;;;0.21;81.07;100125.31;5074814;28;19924;-68
2022/02/09 05:28:41;;;;;;;;;;;;;;;0.25;82.54;100149.47;5077637;28;20379;-67
2022/02/09 05:31:08;;;;;;;;;;;;;;;0.18;82.92;100151.72;5077420;28;19916;-68
2022/02/09 05:33:37;;;;;;;;;;;;;;;0.20;82.81;100155.06;5058401;28;19923;-63
2022/02/09 05:36:02;;;;;;;;;;;;;;;0.22;82.64;100147.91;5074487;28;20291;-72
2022/02/09 05:38:30;;;;;;;;;;;;;;;0.18;83.31;100162.19;5074052;28;20397;-68
2022/02/09 05:40:55;;;;;;;;;;;;;;;0.20;83.07;100162.91;5071661;28;19927;-66
2022/02/09 05:43:23;;;;;;;;;;;;;;;0.23;83.39;100180.19;5072624;28;19916;-66
2022/02/09 05:51:46;;;;;;;;;;;;;;;0.35;82.85;100174.06;5077032;28;20031;-68
2022/02/09 05:54:20;;;;;;;;;;;;;;;0.36;83.08;100185.38;5075553;28;20398;-67
2022/02/09 05:56:49;;;;;;;;;;;;;;;0.27;83.30;100192.94;5075080;28;19939;-69
2022/02/09 05:59:27;;;;;;;;;;;;;;;0.27;83.00;100192.94;5074347;28;20448;-67
2022/02/09 06:01:53;;;;;;;;;;;;;;;0.25;82.69;100188.75;5058191;28;19923;-69
2022/02/09 06:04:20;;;;;;;;;;;;;;;0.21;82.59;100188.16;5075388;28;20387;-65
2022/02/09 06:06:45;;;;;;;;;;;;;;;0.15;82.51;100198.22;5073674;28;20364;-65
2022/02/09 06:09:11;;;;;;;;;;;;;;;0.11;82.58;100202.84;5074172;28;19922;-64
2022/02/09 06:12:02;;;;;;;;;;;;;;;0.06;82.53;100210.22;5055271;28;20384;-62
2022/02/09 06:19:53;;;;;;;;;;;;;;;0.01;82.88;100216.72;5055876;28;19925;-64
2022/02/09 06:22:23;;;;;;;;;;;;;;;0.05;82.58;100216.41;5056010;28;19920;-66
2022/02/09 06:24:49;;;;;;;;;;;;;;;0.06;82.93;100225.09;5074575;28;19924;-68
2022/02/09 06:27:14;;;;;;;;;;;;;;;0.03;83.00;100218.28;5073515;28;20342;-72
2022/02/09 06:29:45;;;;;;;;;;;;;;;0.00;82.80;100215.88;5072989;28;20014;-72
2022/02/09 06:32:10;;;;;;;;;;;;;;;-0.03;82.77;100231.78;5073147;28;19916;-68
2022/02/09 06:34:36;;;;;;;;;;;;;;;0.01;82.79;100228.03;5072238;28;19923;-73
2022/02/09 06:37:13;;;;;;;;;;;;;;;0.04;82.64;100230.44;5073047;28;19916;-71
2022/02/09 06:39:40;;;;;;;;;;;;;;;0.08;82.59;100229.25;5071932;28;19970;-74
2022/02/09 06:42:22;;;;;;;;;;;;;;;0.17;82.51;100233.84;5054595;28;20330;-72
2022/02/09 06:44:48;;;;;;;;;;;;;;;0.17;82.03;100228.59;5073040;28;19924;-71
2022/02/09 06:47:13;;;;;;;;;;;;;;;0.17;82.29;100231.22;5055418;28;19916;-72
2022/02/09 06:49:43;;;;;;;;;;;;;;;0.24;82.08;100234.22;5072917;28;19920;-73
2022/02/09 06:52:08;;;;;;;;;;;;;;;0.28;81.82;100236.50;5073044;28;20374;-69
2022/02/09 06:54:54;;;;;;;;;;;;;;;0.30;81.04;100249.53;5073174;28;19920;-68
2022/02/09 06:57:34;;;;;;;;;;;;;;;0.38;81.20;100241.13;5073326;28;19990;-75
2022/02/09 07:00:00;;;;;;;;;;;;;;;0.37;80.67;100248.13;5074064;28;19973;-69
2022/02/09 07:02:26;;;;;;;;;;;;;;;0.41;80.53;100246.97;5056568;28;19947;-71
2022/02/09 07:04:51;;;;;;;;;;;;;;;0.44;80.11;100243.28;5073179;28;19916;-68
2022/02/09 07:07:18;;;;;;;;;;;;;;;0.50;80.13;100248.06;5074511;28;19916;-68
2022/02/09 07:09:43;;;;;;;;;;;;;;;0.55;79.86;100240.72;5055643;28;19924;-69
2022/02/09 07:12:09;;;;;;;;;;;;;;;0.64;79.67;100245.31;5074246;28;19921;-67
2022/02/09 07:14:34;;;;;;;;;;;;;;;0.72;79.59;100245.56;5055490;28;19954;-67
2022/02/09 07:16:59;;;;;;;;;;;;;;;0.73;78.44;100252.50;5073098;28;19917;-62
2022/02/09 07:19:27;;;;;;;;;;;;;;;0.79;79.10;100248.56;5072353;28;19916;-65
2022/02/09 07:21:52;;;;;;;;;;;;;;;0.80;78.66;100256.31;5072526;28;19961;-69
2022/02/09 07:24:20;;;;;;;;;;;;;;;0.84;79.23;100247.28;5054193;28;19920;-64
2022/02/09 07:29:12;;;;;;;;;;;;;;;0.88;78.87;100245.31;5071922;28;19936;-67
2022/02/09 07:31:37;;;;;;;;;;;;;;;0.97;79.26;100244.59;5071740;28;20303;-64
2022/02/09 07:34:05;;;;;;;;;;;;;;;0.90;79.47;100238.16;5053882;28;20407;-67
2022/02/09 07:36:35;;;;;;;;;;;;;;;0.84;79.60;100244.66;5072507;28;19992;-64
2022/02/09 07:39:05;;;;;;;;;;;;;;;0.86;79.44;100253.25;5036941;28;19965;-65
2022/02/09 07:41:30;;;;;;;;;;;;;;;0.77;79.22;100246.06;5052353;28;19920;-64
2022/02/09 07:54:01;;;;;;;;;;;;;;;1.02;78.66;100258.22;5051685;28;19962;-65
2022/02/09 07:56:34;;;;;;;;;;;;;;;1.06;78.24;100264.88;5051996;28;19921;-63
2022/02/09 07:59:00;;;;;;;;;;;;;;;1.10;78.24;100276.00;5051969;28;19921;-62
2022/02/09 08:01:25;;;;;;;;;;;;;;;1.17;77.84;100271.97;5032141;28;20015;-62
2022/02/09 08:03:51;;;;;;;;;;;;;;;1.15;76.93;100284.34;5027326;28;19971;-65
2022/02/09 08:06:18;;;;;;;;;;;;;;;1.11;77.35;100288.16;5052249;28;19916;-64
2022/02/09 08:08:44;;;;;;;;;;;;;;;1.08;77.27;100298.88;5051840;28;19924;-63
2022/02/09 08:29:58;;;;;;;;;;;;;;;0.65;77.85;100315.13;5056146;28;20480;-66
2022/02/09 08:34:52;;;;;;;;;;;;;;;0.68;77.95;100320.13;5056837;28;19962;-70
2022/02/09 08:37:19;;;;;;;;;;;;;;;0.70;77.90;100326.09;5040840;28;19925;-68
2022/02/09 08:39:45;;;;;;;;;;;;;;;0.73;77.76;100331.13;5075742;28;19920;-73
2022/02/09 08:42:13;;;;;;;;;;;;;;;0.72;77.73;100328.59;5057862;28;19917;-71
2022/02/09 08:44:38;;;;;;;;;;;;;;;0.76;77.73;100309.94;5058274;28;19976;-71
2022/02/09 08:47:06;;;;;;;;;;;;;;;0.76;77.52;100315.16;5075864;28;19955;-73
2022/02/09 08:49:37;;;;;;;;;;;;;;;0.83;77.58;100305.91;5057520;28;19958;-77
2022/02/09 08:52:03;;;;;;;;;;;;;;;0.86;77.07;100310.91;5075075;28;19968;-72
2022/02/09 08:54:29;;;;;;;;;;;;;;;0.92;77.36;100310.50;5057193;28;19934;-72
2022/02/09 08:56:55;;;;;;;;;;;;;;;0.96;77.27;100310.28;5075035;28;20497;-71
2022/02/09 08:59:27;;;;;;;;;;;;;;;0.84;77.31;100322.47;5057161;28;20282;-70
2022/02/09 09:02:05;;;;;;;;;;;;;;;0.84;77.93;100317.22;5056801;28;20306;-72
2022/02/09 09:05:15;;;;;;;;;;;;;;;0.91;77.96;100319.31;5056664;28;19920;-70
2022/02/09 09:07:33;;;;;;;;;;;;;;;1.05;77.91;100320.06;5070943;28;20015;-67
2022/02/09 09:10:16;;;;;;;;;;;;;;;1.15;77.55;100328.94;5075125;28;19981;-70
2022/02/09 10:03:12;;;;;;;;;;;;;;;1.26;77.55;100321.13;5094246;28;20401;-74
2022/02/09 10:31:22;;;;;;;;;;;;;;;1.50;76.27;100331.59;5053678;28;19920;-72
2022/02/09 10:33:51;;;;;;;;;;;;;;;1.46;76.23;100330.97;5054583;28;19917;-69
2022/02/09 10:36:19;;;;;;;;;;;;;;;1.53;76.30;100329.56;5052665;28;20007;-66
2022/02/09 10:38:47;;;;;;;;;;;;;;;1.60;76.07;100337.81;5053096;28;19943;-66
2022/02/09 10:41:33;;;;;;;;;;;;;;;1.62;75.73;100320.16;5052740;28;20440;-67
2022/02/09 10:44:06;;;;;;;;;;;;;;;1.66;75.19;100326.00;5053017;28;19916;-67
2022/02/09 10:46:52;;;;;;;;;;;;;;;1.71;75.02;100326.47;5052723;28;19940;-65
2022/02/09 10:49:19;;;;;;;;;;;;;;;1.66;75.33;100299.75;5053017;28;19917;-67
2022/02/09 10:54:17;;;;;;;;;;;;;;;1.80;74.60;100318.75;5052882;28;20430;-78
2022/02/09 10:56:44;;;;;;;;;;;;;;;1.76;75.16;100327.00;5031819;28;19932;-69
2022/02/09 10:59:37;;;;;;;;;;;;;;;1.77;74.91;100326.88;5052047;28;19971;-72
2022/02/09 11:02:03;;;;;;;;;;;;;;;1.81;74.64;100330.09;5052892;28;19975;-68
2022/02/09 11:04:30;;;;;;;;;;;;;;;1.79;74.19;100321.50;5052328;28;19932;-63
2022/02/09 11:06:56;;;;;;;;;;;;;;;1.86;74.39;100320.91;5052369;28;19916;-68
2022/02/09 11:09:25;;;;;;;;;;;;;;;1.79;73.56;100324.97;5052196;28;20379;-66
2022/02/09 11:11:52;;;;;;;;;;;;;;;1.72;74.58;100330.78;5052085;28;19939;-63
2022/02/09 11:14:21;;;;;;;;;;;;;;;1.77;74.53;100318.16;5052346;28;20412;-62
2022/02/09 11:16:52;;;;;;;;;;;;;;;1.82;74.44;100331.78;5051850;28;19917;-68
2022/02/09 11:19:20;;;;;;;;;;;;;;;1.85;74.38;100323.66;5052166;28;19960;-62
2022/02/09 11:21:50;;;;;;;;;;;;;;;1.83;74.67;100322.94;5052208;28;20423;-65
2022/02/09 11:24:18;;;;;;;;;;;;;;;1.77;74.50;100328.66;5051841;28;20299;-64
2022/02/09 11:27:08;;;;;;;;;;;;;;;1.75;74.74;100328.78;5052051;28;19916;-68
2022/02/09 11:32:50;;;;;;;;;;;;;;;1.81;75.37;100328.31;5035113;28;19917;-66
2022/02/09 11:43:21;;;;;;;;;;;;;;;1.85;75.19;100315.78;5053198;28;19924;-75
2022/02/09 11:57:04;;;;;;;;;;;;;;;2.08;74.50;100306.97;5034633;28;20011;-66
2022/02/09 12:09:01;;;;;;;;;;;;;;;1.85;76.10;100310.53;5034469;28;19916;-66
2022/02/09 12:11:30;;;;;;;;;;;;;;;1.95;74.94;100316.72;5038041;28;19916;-66
2022/02/09 12:19:30;;;;;;;;;;;;;;;1.81;75.10;100311.72;5037541;28;20011;-67
2022/02/09 12:22:05;;;;;;;;;;;;;;;1.69;75.46;100315.25;5068855;28;19969;-66
2022/02/09 12:24:34;;;;;;;;;;;;;;;1.47;75.48;100308.19;5096067;28;19916;-66
2022/02/09 12:27:10;;;;;;;;;;;;;;;1.26;76.00;100312.41;5077154;28;19939;-72
2022/02/09 12:29:38;;;;;;;;;;;;;;;1.17;76.43;100304.28;5081589;28;20026;-67
2022/02/09 12:32:16;;;;;;;;;;;;;;;1.10;76.68;100312.69;5075403;28;19916;-65
2022/02/09 12:34:45;;;;;;;;;;;;;;;1.06;76.91;100313.88;5079421;28;19915;-62
2022/02/09 12:37:13;;;;;;;;;;;;;;;1.14;77.05;100320.22;5080325;28;20279;-70
2022/02/09 12:39:49;;;;;;;;;;;;;;;1.31;76.84;100315.53;5118352;28;19923;-72
2022/02/09 12:42:19;;;;;;;;;;;;;;;1.54;76.21;100306.78;5117430;28;19916;-70
2022/02/09 12:45:16;;;;;;;;;;;;;;;1.61;76.19;100309.75;5116719;28;19916;-70
2022/02/09 12:47:46;;;;;;;;;;;;;;;1.57;76.06;100318.81;5055744;28;19926;-68
2022/02/09 12:50:17;;;;;;;;;;;;;;;1.45;75.20;100312.72;5117485;28;19974;-66
2022/02/09 12:52:43;;;;;;;;;;;;;;;1.29;75.88;100312.19;5099250;28;19915;-66
2022/02/09 12:55:08;;;;;;;;;;;;;;;1.22;76.11;100306.56;5099479;28;20006;-66
2022/02/09 12:57:35;;;;;;;;;;;;;;;1.15;76.43;100307.94;5082179;28;20004;-69
2022/02/09 13:00:04;;;;;;;;;;;;;;;1.13;76.79;100308.06;5097997;28;19927;-64
2022/02/09 13:02:43;;;;;;;;;;;;;;;1.19;76.59;100310.25;5097808;28;19915;-64
2022/02/09 13:05:08;;;;;;;;;;;;;;;1.22;76.80;100306.56;5116242;28;19941;-67
2022/02/09 13:07:33;;;;;;;;;;;;;;;1.34;76.46;100297.78;5116253;28;19919;-63
2022/02/09 13:09:59;;;;;;;;;;;;;;;1.50;76.29;100305.34;5116403;28;19919;-62
2022/02/09 13:12:29;;;;;;;;;;;;;;;1.59;76.00;100302.00;5109804;28;19916;-64
2022/02/09 13:15:11;;;;;;;;;;;;;;;1.66;75.97;100299.75;5094410;28;19971;-65
2022/02/09 13:18:14;;;;;;;;;;;;;;;1.73;75.13;100298.31;5116134;28;19938;-64
2022/02/09 13:26:36;;;;;;;;;;;;;;;1.78;74.98;100294.41;5116185;28;19915;-65
2022/02/09 14:11:42;;;;;;;;;;;;;;;0.89;76.31;100257.47;5093178;28;19916;-70
2022/02/09 14:17:47;;;;;;;;;;;;;;;0.89;76.15;100268.78;5096844;28;19923;-73
2022/02/09 14:47:26;;;;;;;;;;;;;;;-0.23;78.45;100269.00;5072637;28;20287;-65
2022/02/09 14:54:49;;;;;;;;;;;;;;;-0.20;78.28;100276.63;5072452;28;20298;-65
2022/02/09 14:57:19;;;;;;;;;;;;;;;-0.19;78.64;100273.91;5072380;28;19916;-62
2022/02/09 14:59:51;;;;;;;;;;;;;;;-0.13;78.36;100277.88;5065126;28;20003;-64
2022/02/09 15:02:39;;;;;;;;;;;;;;;-0.12;78.70;100263.84;5054424;28;19974;-65
2022/02/09 15:07:49;;;;;;;;;;;;;;;-0.10;78.80;100262.78;5072420;28;19961;-64
2022/02/09 15:21:21;;;;;;;;;;;;;;;-0.24;78.76;100249.00;5071575;28;19916;-64
2022/02/09 15:23:51;;;;;;;;;;;;;;;-0.21;78.95;100249.63;5064250;28;19916;-67
2022/02/09 15:26:19;;;;;;;;;;;;;;;-0.26;79.07;100256.97;5072304;28;20383;-70
2022/02/09 15:28:49;;;;;;;;;;;;;;;-0.32;79.23;100259.97;5072049;28;20007;-65
2022/02/09 15:31:41;;;;;;;;;;;;;;;-0.26;79.59;100245.66;5054076;28;20341;-70
2022/02/09 15:34:14;;;;;;;;;;;;;;;-0.27;78.96;100244.00;5066020;28;19921;-67
2022/02/09 15:36:54;;;;;;;;;;;;;;;-0.21;79.06;100238.31;5071942;28;19923;-66
2022/02/09 15:39:23;;;;;;;;;;;;;;;-0.16;78.84;100238.84;5071875;28;20005;-66
2022/02/09 16:09:31;;;;;;;;;;;;;;;-0.23;79.16;100219.28;5092344;28;19916;-72
2022/02/09 16:18:08;;;;;;;;;;;;;;;-0.33;79.45;100214.66;5091976;28;20356;-70
2022/02/09 16:33:56;;;;;;;;;;;;;;;-0.35;79.71;100206.09;5074392;28;19924;-70
2022/02/09 16:44:18;;;;;;;;;;;;;;;-0.21;79.61;100186.00;5081477;28;19927;-71
2022/02/09 16:44:39;;;;;;;;;;;;;;;-0.25;79.96;100174.06;5057308;28;19916;-71
2022/02/09 16:50:04;;;;;;;;;;;;;;;-0.16;79.71;100162.94;5031004;28;19956;-77
2022/02/09 16:52:38;;;;;;;;;;;;;;;-0.06;79.49;100151.69;5076136;28;20299;-71
2022/02/09 17:19:37;;;;;;;;;;;;;;;0.38;78.62;100102.28;5075889;28;19916;-82
2022/02/09 17:22:06;;;;;;;;;;;;;;;0.40;78.49;100082.88;5063876;28;20342;-75
2022/02/09 17:24:31;;;;;;;;;;;;;;;0.41;78.55;100084.56;5071997;28;19927;-73
2022/02/09 17:26:59;;;;;;;;;;;;;;;0.46;78.42;100068.50;5079213;28;19916;-74
2022/02/09 17:30:07;;;;;;;;;;;;;;;0.46;78.38;100077.19;5098458;28;20077;-79
2022/02/09 17:32:24;;;;;;;;;;;;;;;0.47;78.37;100062.28;5079637;28;20279;-75
2022/02/09 17:53:39;;;;;;;;;;;;;;;0.70;78.26;100024.72;5073190;28;19965;-69
2022/02/09 17:58:35;;;;;;;;;;;;;;;0.60;78.77;100015.88;5071769;28;19966;-72
2022/02/09 18:01:02;;;;;;;;;;;;;;;0.60;79.08;100015.88;5074508;28;19916;-68
2022/02/09 18:03:28;;;;;;;;;;;;;;;0.56;79.08;100010.03;5074133;28;19916;-69
2022/02/09 18:05:56;;;;;;;;;;;;;;;0.55;79.24;100002.28;5073239;28;19920;-70
2022/02/09 18:08:34;;;;;;;;;;;;;;;0.58;79.27;99996.84;5056849;28;19920;-66
2022/02/09 18:29:41;;;;;;;;;;;;;;;0.88;78.56;99968.25;5073603;28;19916;-71
2022/02/09 18:43:12;;;;;;;;;;;;;;;0.91;79.71;99946.19;5056434;28;19927;-73
2022/02/09 18:45:44;;;;;;;;;;;;;;;0.87;80.67;99940.38;5058117;28;19924;-72
2022/02/09 19:30:53;;;;;;;;;;;;;;;0.78;83.13;99862.44;5052187;28;19917;-69
2022/02/09 19:51:46;;;;;;;;;;;;;;;0.70;84.55;99833.41;5033663;28;19916;-68
2022/02/09 19:56:45;;;;;;;;;;;;;;;0.66;84.67;99834.59;5033871;28;20012;-71
2022/02/09 19:59:17;;;;;;;;;;;;;;;0.66;84.55;99831.16;5052094;28;20302;-69
2022/02/09 20:01:43;;;;;;;;;;;;;;;0.65;84.87;99829.50;5052428;28;19963;-70
2022/02/09 20:04:09;;;;;;;;;;;;;;;0.64;84.92;99828.66;5052321;28;19967;-68
2022/02/09 20:06:35;;;;;;;;;;;;;;;0.65;84.99;99821.63;5033518;28;20364;-69
2022/02/09 20:09:01;;;;;;;;;;;;;;;0.67;85.04;99815.31;5055288;28;19951;-72
2022/02/09 20:11:29;;;;;;;;;;;;;;;0.74;85.03;99808.59;5052596;28;19924;-67
2022/02/09 20:13:54;;;;;;;;;;;;;;;0.78;84.79;99798.72;5035225;28;19917;-68
2022/02/09 20:16:24;;;;;;;;;;;;;;;0.79;84.88;99795.97;5051953;28;19917;-70
2022/02/09 20:18:51;;;;;;;;;;;;;;;0.82;84.92;99789.63;5056337;28;20020;-69
2022/02/09 20:21:18;;;;;;;;;;;;;;;0.84;84.98;99783.31;5056464;28;19917;-70
2022/02/09 20:23:44;;;;;;;;;;;;;;;0.86;84.82;99780.56;5055912;28;20014;-71
2022/02/09 20:26:11;;;;;;;;;;;;;;;0.87;84.80;99766.53;5055317;28;19987;-71
2022/02/09 20:28:40;;;;;;;;;;;;;;;0.89;84.28;99767.25;5055369;28;19973;-68
2022/02/09 20:31:10;;;;;;;;;;;;;;;0.84;84.55;99764.13;5055746;28;19916;-68
2022/02/09 20:33:42;;;;;;;;;;;;;;;0.88;84.59;99761.16;5055160;28;20308;-68
2022/02/09 20:36:10;;;;;;;;;;;;;;;0.89;84.33;99749.72;5055877;28;19994;-70
2022/02/09 20:38:37;;;;;;;;;;;;;;;0.85;84.61;99745.66;5055877;28;19928;-71
2022/02/09 20:41:07;;;;;;;;;;;;;;;0.87;84.56;99741.16;5034063;28;19927;-69
2022/02/09 20:43:38;;;;;;;;;;;;;;;0.90;84.56;99740.06;5036362;28;19921;-67
2022/02/09 20:46:06;;;;;;;;;;;;;;;0.96;84.68;99729.06;5055044;28;19931;-68
2022/02/09 20:48:31;;;;;;;;;;;;;;;0.92;83.86;99720.63;5055505;28;19943;-68
2022/02/09 20:50:58;;;;;;;;;;;;;;;0.98;84.12;99721.06;5048337;28;19917;-69
2022/02/09 20:53:24;;;;;;;;;;;;;;;0.92;83.96;99720.63;5055155;28;19966;-68
2022/02/09 20:55:50;;;;;;;;;;;;;;;0.92;84.03;99712.75;5033731;28;19921;-67
2022/02/09 20:58:17;;;;;;;;;;;;;;;0.98;84.19;99707.97;5033978;28;20295;-68
2022/02/09 21:08:37;;;;;;;;;;;;;;;0.97;83.83;99690.56;5054263;28;19917;-67
2022/02/09 21:24:16;;;;;;;;;;;;;;;0.84;84.30;99667.16;5054954;28;19921;-68
2022/02/09 21:56:26;;;;;;;;;;;;;;;0.96;83.34;99581.44;5054045;28;20280;-72
2022/02/09 22:01:38;;;;;;;;;;;;;;;0.90;83.50;99573.13;5053664;28;19923;-68
2022/02/09 22:28:35;;;;;;;;;;;;;;;0.90;83.68;99541.69;5054062;28;19924;-68
2022/02/09 22:54:55;;;;;;;;;;;;;;;0.96;83.61;99487.06;5047291;28;19916;-70
2022/02/09 22:57:33;;;;;;;;;;;;;;;0.92;83.50;99484.72;5049264;28;19921;-67
2022/02/09 23:00:06;;;;;;;;;;;;;;;0.92;83.57;99479.47;5052298;28;19917;-66
2022/02/09 23:02:38;;;;;;;;;;;;;;;0.93;83.78;99477.66;5052697;28;20003;-68
2022/02/09 23:12:54;;;;;;;;;;;;;;;0.93;83.88;99462.78;5051957;28;19982;-68
2022/02/09 23:15:37;;;;;;;;;;;;;;;0.86;84.61;99456.38;5052368;28;20410;-68
